Řízení letového provozu České republiky
Letiste: LKKV Aktualizace: 19.02.2018 12:00:28  UTC
 METAR LKKV 19.02. 12:00 ...
METAR LKKV 191200Z 12007KT CAVOK M00/M06 Q1017 RMK REG QNH 1014=
 TAF LKKV 19.02. 11:00 ...
TAF LKKV 191100Z 1912/2018 06005KT 9999 BKN020      TEMPO 1912/1919 CAVOK      TEMPO 2010/2017 6000 -SN SCT008 BKN013=